createdAt,value
2022-10-17T00:00:45.714Z,6.10
2022-10-17T00:03:12.036Z,6.40
2022-10-17T00:05:43.528Z,6.20
2022-10-17T00:08:11.272Z,6.10
2022-10-17T00:10:38.313Z,5.87
2022-10-17T00:13:05.056Z,6.73
2022-10-17T00:15:32.251Z,5.30
2022-10-17T00:18:00.501Z,5.90
2022-10-17T00:20:27.441Z,5.30
2022-10-17T00:22:53.754Z,5.17
2022-10-17T00:25:20.134Z,5.23
2022-10-17T00:27:46.488Z,4.40
2022-10-17T00:30:16.650Z,5.53
2022-10-17T00:32:43.152Z,5.80
2022-10-17T00:35:09.519Z,5.50
2022-10-17T00:37:36.061Z,5.63
2022-10-17T00:40:03.423Z,5.30
2022-10-17T00:42:30.205Z,6.03
2022-10-17T00:45:21.451Z,6.20
2022-10-17T00:48:05.020Z,5.40
2022-10-17T00:50:32.300Z,5.57
2022-10-17T00:53:02.686Z,5.50
2022-10-17T00:55:32.996Z,6.93
2022-10-17T00:58:00.776Z,5.60
2022-10-17T01:00:27.159Z,6.17
2022-10-17T01:02:53.600Z,6.50
2022-10-17T01:05:21.990Z,5.90
2022-10-17T01:07:49.116Z,5.40
2022-10-17T01:10:15.950Z,6.13
2022-10-17T01:12:54.438Z,5.67
2022-10-17T01:15:34.289Z,5.47
2022-10-17T01:18:13.081Z,5.10
2022-10-17T01:20:58.367Z,4.87
2022-10-17T01:23:39.094Z,4.80
2022-10-17T01:26:23.625Z,4.73
2022-10-17T01:29:08.530Z,5.30
2022-10-17T01:31:46.529Z,5.30
2022-10-17T01:34:22.381Z,5.83
2022-10-17T01:36:48.680Z,6.33
2022-10-17T01:39:21.680Z,6.50
2022-10-17T01:41:56.610Z,5.97
2022-10-17T01:44:38.421Z,5.73
2022-10-17T01:47:09.896Z,6.30
2022-10-17T01:49:37.488Z,5.87
2022-10-17T01:52:06.844Z,5.13
2022-10-17T01:54:41.375Z,5.57
2022-10-17T01:57:13.941Z,5.67
2022-10-17T01:59:43.997Z,5.73
2022-10-17T02:02:13.964Z,7.17
2022-10-17T02:04:41.039Z,7.03
2022-10-17T02:07:13.200Z,6.20
2022-10-17T02:09:40.213Z,5.93
2022-10-17T02:12:25.150Z,6.80
2022-10-17T02:15:29.110Z,6.80
2022-10-17T02:18:01.514Z,6.57
2022-10-17T02:20:53.814Z,6.47
2022-10-17T02:23:37.727Z,6.60
2022-10-17T02:26:25.708Z,6.00
2022-10-17T02:29:07.093Z,6.30
2022-10-17T02:31:40.082Z,5.90
2022-10-17T02:34:14.489Z,6.50
2022-10-17T02:36:46.269Z,6.60
2022-10-17T02:39:13.303Z,7.10
2022-10-17T02:41:40.844Z,6.30
2022-10-17T02:44:07.554Z,6.67
2022-10-17T02:46:34.753Z,5.87
2022-10-17T02:49:15.536Z,6.80
2022-10-17T02:51:47.073Z,7.07
2022-10-17T02:54:22.986Z,6.67
2022-10-17T02:56:55.390Z,6.43
2022-10-17T02:59:22.941Z,7.23
2022-10-17T03:01:51.471Z,5.97
2022-10-17T03:04:18.215Z,7.10
2022-10-17T03:06:46.885Z,7.07
2022-10-17T03:09:13.215Z,6.53
2022-10-17T03:11:40.793Z,7.30
2022-10-17T03:14:08.349Z,8.37
2022-10-17T03:16:34.739Z,7.47
2022-10-17T03:19:01.015Z,7.50
2022-10-17T03:21:27.384Z,8.07
2022-10-17T03:23:53.860Z,6.27
2022-10-17T03:26:22.175Z,7.20
2022-10-17T03:28:50.728Z,6.77
2022-10-17T03:31:20.192Z,6.97
2022-10-17T03:33:47.269Z,7.50
2022-10-17T03:36:15.579Z,7.00
2022-10-17T03:38:42.701Z,7.00
2022-10-17T03:41:09.123Z,7.20
2022-10-17T03:43:37.918Z,8.23
2022-10-17T03:46:04.435Z,7.23
2022-10-17T03:48:32.199Z,7.73
2022-10-17T03:51:08.232Z,7.27
2022-10-17T03:53:39.830Z,8.17
2022-10-17T03:56:15.252Z,7.17
2022-10-17T03:58:41.844Z,8.03
2022-10-17T04:01:12.093Z,7.37
2022-10-17T04:03:39.072Z,7.07
2022-10-17T04:06:05.563Z,7.87
2022-10-17T04:08:34.313Z,7.70
2022-10-17T04:11:08.309Z,7.47
2022-10-17T04:13:35.522Z,7.50
2022-10-17T04:16:06.074Z,7.37
2022-10-17T04:18:33.687Z,7.70
2022-10-17T04:21:07.377Z,7.17
2022-10-17T04:23:34.388Z,6.87
2022-10-17T04:26:10.164Z,7.07
2022-10-17T04:28:36.724Z,7.40
2022-10-17T04:31:06.347Z,6.80
2022-10-17T04:33:38.750Z,6.93
2022-10-17T04:36:09.824Z,8.83
2022-10-17T04:38:36.343Z,6.63
2022-10-17T04:41:04.231Z,6.90
2022-10-17T04:43:31.387Z,7.70
2022-10-17T04:46:02.913Z,7.53
2022-10-17T04:48:30.205Z,8.07
2022-10-17T04:51:10.265Z,8.77
2022-10-17T04:53:43.644Z,9.63
2022-10-17T04:56:11.858Z,10.20
2022-10-17T04:58:39.153Z,11.73
2022-10-17T05:01:07.590Z,11.30
2022-10-17T05:03:35.714Z,11.10
2022-10-17T05:06:09.705Z,11.23
2022-10-17T05:08:37.227Z,9.93
2022-10-17T05:11:05.618Z,9.07
2022-10-17T05:13:32.671Z,10.20
2022-10-17T05:16:01.090Z,8.47
2022-10-17T05:18:28.591Z,8.50
2022-10-17T05:20:55.480Z,8.47
2022-10-17T05:23:21.993Z,8.27
2022-10-17T05:25:54.868Z,7.27
2022-10-17T05:28:23.929Z,7.30
2022-10-17T05:30:51.685Z,7.10
2022-10-17T05:33:18.194Z,7.03
2022-10-17T05:35:45.064Z,6.20
2022-10-17T05:38:11.333Z,7.40
2022-10-17T05:40:40.216Z,6.67
2022-10-17T05:43:06.670Z,7.10
2022-10-17T05:45:33.029Z,6.27
2022-10-17T05:47:59.934Z,6.83
2022-10-17T05:50:26.366Z,5.97
2022-10-17T05:53:18.669Z,6.37
2022-10-17T05:55:56.004Z,6.90
2022-10-17T05:58:32.472Z,6.70
2022-10-17T06:01:13.866Z,6.13
2022-10-17T06:03:40.299Z,6.70
2022-10-17T06:06:09.730Z,5.57
2022-10-17T06:08:38.868Z,6.70
2022-10-17T06:11:09.887Z,6.03
2022-10-17T06:13:37.785Z,6.77
2022-10-17T06:16:09.993Z,5.77
2022-10-17T06:18:36.407Z,7.03
2022-10-17T06:21:09.085Z,5.90
2022-10-17T06:23:39.144Z,6.00
2022-10-17T06:26:14.725Z,6.03
2022-10-17T06:28:41.843Z,6.20
2022-10-17T06:31:10.443Z,5.97
2022-10-17T06:33:37.505Z,6.63
2022-10-17T06:36:06.653Z,6.20
2022-10-17T06:38:34.926Z,6.13
2022-10-17T06:41:21.443Z,6.00
2022-10-17T06:43:51.630Z,5.80
2022-10-17T06:46:44.787Z,5.83
2022-10-17T06:49:14.682Z,6.00
2022-10-17T06:51:59.686Z,6.20
2022-10-17T06:54:46.283Z,6.20
2022-10-17T06:57:41.445Z,5.50
2022-10-17T07:00:30.374Z,5.87
2022-10-17T07:02:57.133Z,5.87
2022-10-17T07:05:23.500Z,5.83
2022-10-17T07:07:51.772Z,5.83
2022-10-17T07:10:18.436Z,6.07
2022-10-17T07:12:45.683Z,5.57
2022-10-17T07:15:12.218Z,5.50
2022-10-17T07:17:38.946Z,5.73
2022-10-17T07:20:05.806Z,8.00
2022-10-17T07:22:34.328Z,5.90
2022-10-17T07:25:01.207Z,6.37
2022-10-17T07:27:36.115Z,5.93
2022-10-17T07:30:02.445Z,6.30
2022-10-17T07:32:35.058Z,6.37
2022-10-17T07:35:01.828Z,6.70
2022-10-17T07:37:29.471Z,5.83
2022-10-17T07:39:56.712Z,6.57
2022-10-17T07:42:23.487Z,6.00
2022-10-17T07:44:50.999Z,6.20
2022-10-17T07:47:17.384Z,6.20
2022-10-17T07:49:45.248Z,7.50
2022-10-17T07:52:16.117Z,5.60
2022-10-17T07:54:42.881Z,5.03
2022-10-17T07:57:09.644Z,5.73
2022-10-17T07:59:38.106Z,5.87
2022-10-17T08:02:04.376Z,5.90
2022-10-17T08:04:30.925Z,4.60
2022-10-17T08:07:11.579Z,5.10
2022-10-17T08:09:44.061Z,5.27
2022-10-17T08:12:10.416Z,6.83
2022-10-17T08:14:36.985Z,5.03
2022-10-17T08:17:03.263Z,4.73
2022-10-17T08:19:29.566Z,5.63
2022-10-17T08:21:55.942Z,5.27
2022-10-17T08:24:22.426Z,5.23
2022-10-17T08:26:51.683Z,5.27
2022-10-17T08:29:18.146Z,5.00
2022-10-17T08:31:47.731Z,5.07
2022-10-17T08:34:15.776Z,4.93
2022-10-17T08:36:42.217Z,5.70
2022-10-17T08:39:08.461Z,4.90
2022-10-17T08:41:39.477Z,4.70
2022-10-17T08:44:29.527Z,5.43
2022-10-17T08:47:01.836Z,4.67
2022-10-17T08:49:46.777Z,4.60
2022-10-17T08:52:27.632Z,4.97
2022-10-17T08:54:53.966Z,4.80
2022-10-17T08:57:20.356Z,4.63
2022-10-17T08:59:50.372Z,4.70
2022-10-17T09:02:54.478Z,4.27
2022-10-17T09:05:26.948Z,4.20
2022-10-17T09:08:04.880Z,4.57
2022-10-17T09:10:46.351Z,4.40
2022-10-17T09:13:24.506Z,4.90
2022-10-17T09:16:09.772Z,5.10
2022-10-17T09:18:42.965Z,4.33
2022-10-17T09:21:44.694Z,4.47
2022-10-17T09:24:16.622Z,4.70
2022-10-17T09:26:44.676Z,4.70
2022-10-17T09:29:22.055Z,3.90
2022-10-17T09:31:54.366Z,4.33
2022-10-17T09:34:25.249Z,4.50
2022-10-17T09:36:53.183Z,4.93
2022-10-17T09:39:24.570Z,4.27
2022-10-17T09:41:53.937Z,4.80
2022-10-17T09:44:24.438Z,4.83
2022-10-17T09:47:15.281Z,4.40
2022-10-17T09:49:44.688Z,4.87
2022-10-17T09:52:21.556Z,4.50
2022-10-17T09:54:49.958Z,4.87
2022-10-17T09:57:17.023Z,4.67
2022-10-17T09:59:57.393Z,4.73
2022-10-17T10:02:25.561Z,4.83
2022-10-17T10:05:07.399Z,5.10
2022-10-17T10:07:38.318Z,4.17
2022-10-17T10:10:06.311Z,4.23
2022-10-17T10:12:36.411Z,4.67
2022-10-17T10:15:22.621Z,4.17
2022-10-17T10:17:48.992Z,4.90
2022-10-17T10:20:36.879Z,5.10
2022-10-17T10:23:17.591Z,5.60
2022-10-17T10:25:55.056Z,4.23
2022-10-17T10:28:23.097Z,4.20
2022-10-17T10:30:52.258Z,4.33
2022-10-17T10:33:21.769Z,4.60
2022-10-17T10:36:01.682Z,4.30
2022-10-17T10:38:29.554Z,4.00
2022-10-17T10:40:57.314Z,8.20
2022-10-17T10:43:31.792Z,4.93
2022-10-17T10:45:58.175Z,4.50
2022-10-17T10:48:32.234Z,4.40
2022-10-17T10:51:12.351Z,4.37
2022-10-17T10:53:45.585Z,4.03
2022-10-17T10:56:22.794Z,4.70
2022-10-17T10:59:20.408Z,4.60
2022-10-17T11:02:14.478Z,4.27
2022-10-17T11:04:44.148Z,4.57
2022-10-17T11:07:19.842Z,4.40
2022-10-17T11:09:53.345Z,4.23
2022-10-17T11:12:28.611Z,4.57
2022-10-17T11:15:07.590Z,4.30
2022-10-17T11:17:39.774Z,4.50
2022-10-17T11:20:09.458Z,4.30
2022-10-17T11:22:46.644Z,4.30
2022-10-17T11:25:33.683Z,3.80
2022-10-17T11:28:04.949Z,4.37
2022-10-17T11:30:39.454Z,4.50
2022-10-17T11:33:07.454Z,4.17
2022-10-17T11:35:36.585Z,4.43
2022-10-17T11:38:18.461Z,4.50
2022-10-17T11:40:49.100Z,4.77
2022-10-17T11:43:30.828Z,4.67
2022-10-17T11:46:01.650Z,4.80
2022-10-17T11:48:49.812Z,4.30
2022-10-17T11:54:11.554Z,4.30
2022-10-17T11:56:51.377Z,4.83
2022-10-17T11:59:36.140Z,4.60
2022-10-17T12:02:09.405Z,4.77
2022-10-17T12:05:09.049Z,4.57
2022-10-17T12:07:48.082Z,3.87
2022-10-17T12:10:14.358Z,4.40
2022-10-17T12:12:40.703Z,6.30
2022-10-17T12:15:13.051Z,5.23
2022-10-17T12:17:55.093Z,5.00
2022-10-17T12:20:23.364Z,5.03
2022-10-17T12:22:51.925Z,5.93
2022-10-17T12:25:42.461Z,4.73
2022-10-17T12:28:27.909Z,6.30
2022-10-17T12:31:05.815Z,5.40
2022-10-17T12:33:35.379Z,5.30
2022-10-17T12:36:30.901Z,5.10
2022-10-17T12:39:03.148Z,4.93
2022-10-17T12:41:38.689Z,5.30
2022-10-17T12:44:14.929Z,5.30
2022-10-17T12:46:41.461Z,5.27
2022-10-17T12:49:24.661Z,5.53
2022-10-17T12:52:10.788Z,5.57
2022-10-17T12:55:00.307Z,5.00
2022-10-17T12:57:49.726Z,5.17
2022-10-17T13:00:23.791Z,5.73
2022-10-17T13:02:53.285Z,5.00
2022-10-17T13:05:24.532Z,5.60
2022-10-17T13:07:51.709Z,5.33
2022-10-17T13:10:22.934Z,5.50
2022-10-17T13:12:49.903Z,6.70
2022-10-17T13:15:19.300Z,6.40
2022-10-17T13:17:46.027Z,5.27
2022-10-17T13:20:28.969Z,5.27
2022-10-17T13:22:57.844Z,5.40
2022-10-17T13:25:25.357Z,5.30
2022-10-17T13:28:04.452Z,5.13
2022-10-17T13:30:32.402Z,5.53
2022-10-17T13:32:59.371Z,5.20
2022-10-17T13:35:48.574Z,5.60
2022-10-17T13:38:26.071Z,5.30
2022-10-17T13:40:58.019Z,5.53
2022-10-17T13:43:30.383Z,5.07
2022-10-17T13:46:25.571Z,5.37
2022-10-17T13:48:52.370Z,5.10
2022-10-17T13:51:18.829Z,5.10
2022-10-17T13:53:45.105Z,5.77
2022-10-17T13:56:28.830Z,5.40
2022-10-17T13:58:59.063Z,5.20
2022-10-17T14:01:28.216Z,5.60
2022-10-17T14:04:07.851Z,5.10
2022-10-17T14:06:36.917Z,6.30
2022-10-17T14:09:17.037Z,6.07
2022-10-17T14:11:44.272Z,5.70
2022-10-17T14:14:20.692Z,5.63
2022-10-17T14:16:47.488Z,5.50
2022-10-17T14:19:33.771Z,5.67
2022-10-17T14:22:22.252Z,5.10
2022-10-17T14:24:50.400Z,5.13
2022-10-17T14:27:29.873Z,4.97
2022-10-17T14:30:00.750Z,4.80
2022-10-17T14:32:29.202Z,5.50
2022-10-17T14:35:10.580Z,4.60
2022-10-17T14:37:46.214Z,4.47
2022-10-17T14:40:18.452Z,6.07
2022-10-17T14:42:45.828Z,6.60
2022-10-17T14:45:26.134Z,5.27
2022-10-17T14:47:55.094Z,5.20
2022-10-17T14:50:21.350Z,5.60
2022-10-17T14:53:18.507Z,5.97
2022-10-17T14:56:09.977Z,5.37
2022-10-17T14:58:36.350Z,5.17
2022-10-17T15:01:02.710Z,5.37
2022-10-17T15:03:29.132Z,5.57
2022-10-17T15:05:55.966Z,4.10
2022-10-17T15:08:23.928Z,4.30
2022-10-17T15:10:51.187Z,5.47
2022-10-17T15:13:39.944Z,5.03
2022-10-17T15:16:18.085Z,4.80
2022-10-17T15:18:44.395Z,4.33
2022-10-17T15:21:26.663Z,4.30
2022-10-17T15:24:01.544Z,4.10
2022-10-17T15:26:32.120Z,4.47
2022-10-17T15:28:58.758Z,4.70
2022-10-17T15:31:26.181Z,4.33
2022-10-17T15:33:52.578Z,5.10
2022-10-17T15:36:26.126Z,5.00
2022-10-17T15:38:53.484Z,5.57
2022-10-17T15:41:20.057Z,4.83
2022-10-17T15:43:49.216Z,4.63
2022-10-17T15:46:23.716Z,5.00
2022-10-17T15:48:50.339Z,5.67
2022-10-17T15:51:17.663Z,4.50
2022-10-17T15:53:44.349Z,4.70
2022-10-17T15:56:24.767Z,5.27
2022-10-17T15:58:51.369Z,5.33
2022-10-17T16:01:26.935Z,4.73
2022-10-17T16:03:53.780Z,5.40
2022-10-17T16:06:21.277Z,5.20
2022-10-17T16:08:48.671Z,5.10
2022-10-17T16:11:33.259Z,5.43
2022-10-17T16:14:02.213Z,5.27
2022-10-17T16:16:28.925Z,6.07
2022-10-17T16:18:55.189Z,5.57
2022-10-17T16:21:26.305Z,5.63
2022-10-17T16:23:53.231Z,6.07
2022-10-17T16:26:19.942Z,5.97
2022-10-17T16:28:46.764Z,6.17
2022-10-17T16:31:23.215Z,6.10
2022-10-17T16:33:51.037Z,6.33
2022-10-17T16:36:17.481Z,6.20
2022-10-17T16:38:44.200Z,6.30
2022-10-17T16:41:22.705Z,7.57
2022-10-17T16:43:49.671Z,6.40
2022-10-17T16:46:16.656Z,6.00
2022-10-17T16:48:44.330Z,5.93
2022-10-17T16:51:12.082Z,6.50
2022-10-17T16:53:44.628Z,6.20
2022-10-17T16:56:15.819Z,6.73
2022-10-17T16:58:42.358Z,5.93
2022-10-17T17:01:12.943Z,6.43
2022-10-17T17:03:43.701Z,4.83
2022-10-17T17:06:13.908Z,5.20
2022-10-17T17:08:40.212Z,4.90
2022-10-17T17:11:07.145Z,4.30
2022-10-17T17:13:34.043Z,5.27
2022-10-17T17:16:09.509Z,4.70
2022-10-17T17:18:36.100Z,4.50
2022-10-17T17:21:04.857Z,4.70
2022-10-17T17:23:34.324Z,5.13
2022-10-17T17:26:01.674Z,5.20
2022-10-17T17:28:28.225Z,5.03
2022-10-17T17:30:55.517Z,4.87
2022-10-17T17:33:24.093Z,5.60
2022-10-17T17:35:55.776Z,4.90
2022-10-17T17:38:22.397Z,5.67
2022-10-17T17:40:50.823Z,5.40
2022-10-17T17:43:18.215Z,5.37
2022-10-17T17:45:44.522Z,5.43
2022-10-17T17:48:12.094Z,5.27
2022-10-17T17:50:39.924Z,4.97
2022-10-17T17:53:07.985Z,5.47
2022-10-17T17:55:34.782Z,5.40
2022-10-17T17:58:01.432Z,6.40
2022-10-17T18:00:27.707Z,5.90
2022-10-17T18:02:54.406Z,6.00
2022-10-17T18:05:20.723Z,6.43
2022-10-17T18:07:47.294Z,6.30
2022-10-17T18:12:42.031Z,6.20
2022-10-17T18:15:08.861Z,7.20
2022-10-17T18:17:35.690Z,6.30
2022-10-17T18:20:03.352Z,6.83
2022-10-17T18:22:29.862Z,6.37
2022-10-17T18:24:56.337Z,7.80
2022-10-17T18:27:22.657Z,7.37
2022-10-17T18:29:50.317Z,7.37
2022-10-17T18:32:17.315Z,6.37
2022-10-17T18:34:43.668Z,6.70
2022-10-17T18:37:10.071Z,5.90
2022-10-17T18:39:36.323Z,6.77
2022-10-17T18:42:02.658Z,6.20
2022-10-17T18:44:29.125Z,5.70
2022-10-17T18:46:58.508Z,5.53
2022-10-17T18:49:27.829Z,5.90
2022-10-17T18:51:54.196Z,6.13
2022-10-17T18:54:21.476Z,6.40
2022-10-17T18:56:50.893Z,6.20
2022-10-17T18:59:18.507Z,6.00
2022-10-17T19:01:44.878Z,5.27
2022-10-17T19:04:11.537Z,5.53
2022-10-17T19:06:39.481Z,4.93
2022-10-17T19:09:08.621Z,5.10
2022-10-17T19:11:36.364Z,5.17
2022-10-17T19:14:04.220Z,5.70
2022-10-17T19:16:36.572Z,5.90
2022-10-17T19:19:06.721Z,5.30
2022-10-17T19:21:33.657Z,6.90
2022-10-17T19:24:05.537Z,6.77
2022-10-17T19:26:35.607Z,6.53
2022-10-17T19:29:02.461Z,7.00
2022-10-17T19:31:31.474Z,7.13
2022-10-17T19:33:58.915Z,6.80
2022-10-17T19:36:30.761Z,6.37
2022-10-17T19:39:02.339Z,6.47
2022-10-17T19:41:28.869Z,6.50
2022-10-17T19:43:55.442Z,5.57
2022-10-17T19:46:24.222Z,6.70
2022-10-17T19:48:51.113Z,6.20
2022-10-17T19:51:19.754Z,5.20
2022-10-17T19:53:46.500Z,5.90
2022-10-17T19:56:13.158Z,5.53
2022-10-17T19:58:46.355Z,4.77
2022-10-17T20:01:15.239Z,5.30
2022-10-17T20:03:41.689Z,4.67
2022-10-17T20:06:09.042Z,4.83
2022-10-17T20:08:37.009Z,5.40
2022-10-17T20:11:09.087Z,5.50
2022-10-17T20:13:36.529Z,4.97
2022-10-17T20:16:04.829Z,5.00
2022-10-17T20:18:31.193Z,5.10
2022-10-17T20:21:03.121Z,4.30
2022-10-17T20:23:29.457Z,4.50
2022-10-17T20:26:18.853Z,5.20
2022-10-17T20:28:48.155Z,4.40
2022-10-17T20:31:15.464Z,4.00
2022-10-17T20:33:41.840Z,4.20
2022-10-17T20:36:09.360Z,4.17
2022-10-17T20:38:36.003Z,4.10
2022-10-17T20:41:03.168Z,3.97
2022-10-17T20:43:29.834Z,3.77
2022-10-17T20:46:02.664Z,3.60
2022-10-17T20:48:31.070Z,3.27
2022-10-17T20:50:57.640Z,3.10
2022-10-17T20:53:36.588Z,2.97
2022-10-17T20:56:11.478Z,3.10
2022-10-17T20:58:37.985Z,3.40
2022-10-17T21:01:05.552Z,3.00
2022-10-17T21:03:35.191Z,3.03
2022-10-17T21:06:01.640Z,3.30
2022-10-17T21:08:27.937Z,3.07
2022-10-17T21:10:54.244Z,2.90
2022-10-17T21:13:20.662Z,2.73
2022-10-17T21:15:46.971Z,2.80
2022-10-17T21:18:13.342Z,2.33
2022-10-17T21:20:39.601Z,2.43
2022-10-17T21:23:05.847Z,2.80
2022-10-17T21:25:32.082Z,2.87
2022-10-17T21:27:58.433Z,2.37
2022-10-17T21:30:24.659Z,2.03
2022-10-17T21:32:54.055Z,2.80
2022-10-17T21:35:20.643Z,2.67
2022-10-17T21:37:46.960Z,2.90
2022-10-17T21:40:13.272Z,3.27
2022-10-17T21:42:39.658Z,2.77
2022-10-17T21:45:15.311Z,2.90
2022-10-17T21:47:54.985Z,2.70
2022-10-17T21:50:28.749Z,2.73
2022-10-17T21:52:55.048Z,3.80
2022-10-17T21:55:21.327Z,3.17
2022-10-17T21:57:47.642Z,3.13
2022-10-17T22:00:14.109Z,3.00
2022-10-17T22:02:40.384Z,3.20
2022-10-17T22:05:06.987Z,2.90
2022-10-17T22:07:33.312Z,3.43
2022-10-17T22:09:59.727Z,2.60
2022-10-17T22:12:26.251Z,3.43
2022-10-17T22:14:52.544Z,3.07
2022-10-17T22:17:18.914Z,2.90
2022-10-17T22:19:45.224Z,2.60
2022-10-17T22:22:11.482Z,3.30
2022-10-17T22:24:37.776Z,3.30
2022-10-17T22:27:04.238Z,3.57
2022-10-17T22:29:30.635Z,2.50
2022-10-17T22:31:56.875Z,3.33
2022-10-17T22:34:23.209Z,2.93
2022-10-17T22:36:49.606Z,3.00
2022-10-17T22:39:15.898Z,2.90
2022-10-17T22:41:42.164Z,3.67
2022-10-17T22:44:08.561Z,2.73
2022-10-17T22:46:35.097Z,2.63
2022-10-17T22:49:01.558Z,2.80
2022-10-17T22:51:27.951Z,3.10
2022-10-17T22:53:54.315Z,3.57
2022-10-17T22:56:21.497Z,3.17
2022-10-17T22:58:48.250Z,3.17
2022-10-17T23:01:20.770Z,3.23
2022-10-17T23:03:47.160Z,2.77
2022-10-17T23:06:13.481Z,3.10
2022-10-17T23:08:40.077Z,2.73
2022-10-17T23:11:07.491Z,3.10
2022-10-17T23:13:34.050Z,2.90
2022-10-17T23:16:00.511Z,2.97
2022-10-17T23:18:27.574Z,3.00
2022-10-17T23:20:54.370Z,3.33
2022-10-17T23:23:21.638Z,5.77
2022-10-17T23:25:48.031Z,7.03
2022-10-17T23:28:14.386Z,5.93
2022-10-17T23:30:40.931Z,5.13
2022-10-17T23:33:07.720Z,4.60
2022-10-17T23:35:35.490Z,5.33
2022-10-17T23:38:02.052Z,4.40
2022-10-17T23:40:28.319Z,4.70
2022-10-17T23:42:54.705Z,3.80
2022-10-17T23:45:21.368Z,3.60
2022-10-17T23:47:47.896Z,3.50
2022-10-17T23:50:14.258Z,3.13
2022-10-17T23:52:40.537Z,3.60
2022-10-17T23:55:07.162Z,3.37
2022-10-17T23:57:34.012Z,3.03
